Time;durP1;ratioP1;P1;durP2;ratioP2;P2;SDS_P1;SDS_P2;PMS_P1;PMS_P2;Temp;Humidity;BMP_temperature;BMP_pressure;BME280_temperature;BME280_humidity;BME280_pressure;Samples;Min_cycle;Max_cycle;Signal;HPM_P1;HPM_P2
2024/03/14 00:00:17;;;;;;;17.17;10.60;;;;;;;6.60;100.00;96347.88;1039521;28;20060;-67
2024/03/14 00:00:48;;;;;;;16.25;10.25;;;;;;;6.60;100.00;96345.28;1035518;28;20033;-67
2024/03/14 00:01:19;;;;;;;16.98;10.18;;;;;;;6.60;100.00;96345.28;1031231;28;20098;-67
2024/03/14 00:01:49;;;;;;;17.88;10.93;;;;;;;6.56;100.00;96334.50;1027905;28;20550;-68
2024/03/14 00:02:20;;;;;;;16.55;9.88;;;;;;;6.55;100.00;96340.75;1036045;28;20415;-68
2024/03/14 00:02:51;;;;;;;16.95;10.45;;;;;;;6.58;100.00;96340.31;1035711;28;20376;-67
2024/03/14 00:03:22;;;;;;;20.45;10.98;;;;;;;6.58;100.00;96340.31;1041660;28;20627;-70
2024/03/14 00:03:55;;;;;;;15.02;9.90;;;;;;;6.58;100.00;96339.50;1043340;28;20074;-68
2024/03/14 00:04:26;;;;;;;16.08;9.93;;;;;;;6.57;100.00;96338.72;1036091;28;20026;-67
2024/03/14 00:04:58;;;;;;;15.95;9.98;;;;;;;6.57;100.00;96340.50;1036989;28;20048;-67
2024/03/14 00:05:28;;;;;;;15.65;10.07;;;;;;;6.55;100.00;96337.34;1039625;28;20038;-71
2024/03/14 00:06:01;;;;;;;15.63;9.70;;;;;;;6.55;100.00;96339.94;1032119;28;20030;-68
2024/03/14 00:06:31;;;;;;;13.50;9.73;;;;;;;6.57;100.00;96340.50;1035176;28;20439;-68
2024/03/14 00:07:01;;;;;;;16.35;9.15;;;;;;;6.55;100.00;96340.75;1031401;28;20026;-67
2024/03/14 00:07:32;;;;;;;15.98;10.27;;;;;;;6.54;100.00;96336.56;1031717;28;20571;-67
2024/03/14 00:08:03;;;;;;;17.17;9.98;;;;;;;6.58;100.00;96339.50;1030783;28;20039;-67
2024/03/14 00:08:34;;;;;;;15.00;9.55;;;;;;;6.51;100.00;96334.38;1035460;28;20149;-68
2024/03/14 00:09:04;;;;;;;14.77;9.57;;;;;;;6.54;100.00;96333.16;1031930;28;20057;-69
2024/03/14 00:09:34;;;;;;;14.30;9.95;;;;;;;6.55;100.00;96334.75;1033380;28;20111;-68
2024/03/14 00:10:06;;;;;;;17.88;9.50;;;;;;;6.54;100.00;96336.56;1037376;28;20029;-67
2024/03/14 00:10:37;;;;;;;16.60;8.93;;;;;;;6.54;100.00;96340.97;1029182;28;20023;-68
2024/03/14 00:11:08;;;;;;;14.80;9.43;;;;;;;6.50;100.00;96321.56;1036816;28;20030;-70
2024/03/14 00:11:39;;;;;;;14.65;9.73;;;;;;;6.51;100.00;96336.19;1036715;28;20029;-68
2024/03/14 00:12:10;;;;;;;13.35;9.73;;;;;;;6.51;100.00;96341.41;1039903;28;20031;-68
2024/03/14 00:12:41;;;;;;;17.35;9.63;;;;;;;6.50;100.00;96331.97;1039523;28;20028;-69
2024/03/14 00:13:11;;;;;;;13.30;8.73;;;;;;;6.51;100.00;96338.81;1035685;28;20029;-67
2024/03/14 00:13:45;;;;;;;14.80;9.50;;;;;;;6.49;100.00;96333.81;1031354;28;20026;-67
2024/03/14 00:14:15;;;;;;;14.57;9.73;;;;;;;6.51;100.00;96336.19;1023422;28;20122;-67
2024/03/14 00:14:50;;;;;;;16.70;9.48;;;;;;;6.50;100.00;96331.97;1019516;29;20437;-68
2024/03/14 00:15:20;;;;;;;15.48;10.52;;;;;;;6.47;100.00;96322.81;1026537;28;20301;-68
2024/03/14 00:15:51;;;;;;;14.57;9.48;;;;;;;6.49;100.00;96333.00;1027888;28;20023;-68
2024/03/14 00:16:21;;;;;;;16.70;10.25;;;;;;;6.48;100.00;96327.00;1031961;28;20022;-67
2024/03/14 00:16:52;;;;;;;13.82;9.30;;;;;;;6.49;100.00;96327.78;1037351;28;20032;-68
2024/03/14 00:17:22;;;;;;;15.20;9.23;;;;;;;6.47;100.00;96330.63;1043640;28;20021;-68
2024/03/14 00:17:53;;;;;;;16.42;10.45;;;;;;;6.50;100.00;96331.97;1038862;28;20510;-68
2024/03/14 00:18:24;;;;;;;15.70;9.25;;;;;;;6.51;100.00;96328.38;1034706;28;20459;-67
2024/03/14 00:18:55;;;;;;;15.35;8.75;;;;;;;6.49;100.00;96325.97;1033394;28;20022;-68
2024/03/14 00:19:25;;;;;;;14.75;9.10;;;;;;;6.50;100.00;96329.38;1033879;28;20022;-67
2024/03/14 00:19:55;;;;;;;16.17;9.20;;;;;;;6.51;100.00;96325.78;1031312;28;20022;-68
2024/03/14 00:20:26;;;;;;;15.70;9.23;;;;;;;6.50;100.00;96321.56;1030402;28;20022;-68
2024/03/14 00:20:56;;;;;;;13.38;8.93;;;;;;;6.48;100.00;96324.41;1035404;28;20019;-68
2024/03/14 00:21:27;;;;;;;13.70;8.65;;;;;;;6.49;100.00;96325.97;1031284;28;20022;-68
2024/03/14 00:21:57;;;;;;;17.17;9.90;;;;;;;6.49;100.00;96325.97;1031417;28;20023;-68
2024/03/14 00:22:28;;;;;;;16.83;9.32;;;;;;;6.49;100.00;96322.59;1035407;28;20087;-68
2024/03/14 00:22:58;;;;;;;13.75;9.35;;;;;;;6.45;100.00;96318.84;1039571;28;20029;-68
2024/03/14 00:23:30;;;;;;;15.00;8.85;;;;;;;6.51;100.00;96325.78;1039334;28;20501;-68
2024/03/14 00:24:01;;;;;;;12.10;8.25;;;;;;;6.46;100.00;96318.59;1035255;28;20018;-68
2024/03/14 00:24:31;;;;;;;15.75;9.02;;;;;;;6.52;100.00;96322.13;1033364;28;20034;-70
2024/03/14 00:25:02;;;;;;;12.38;8.52;;;;;;;6.38;100.00;96298.06;1031290;28;20586;-69
2024/03/14 00:25:32;;;;;;;13.77;8.98;;;;;;;6.54;100.00;96322.72;1023991;28;20393;-68
2024/03/14 00:26:03;;;;;;;13.88;9.35;;;;;;;6.55;100.00;96319.09;1023527;28;20112;-68
2024/03/14 00:26:33;;;;;;;12.30;8.18;;;;;;;6.55;100.00;96319.09;1027189;28;20021;-68
2024/03/14 00:27:04;;;;;;;13.63;8.75;;;;;;;6.54;100.00;96322.72;1033177;28;20027;-68
2024/03/14 00:27:34;;;;;;;14.70;8.90;;;;;;;6.56;100.00;96325.88;1027474;28;20506;-68
2024/03/14 00:28:05;;;;;;;13.70;8.95;;;;;;;6.54;100.00;96320.13;1034706;28;20018;-67
2024/03/14 00:28:35;;;;;;;14.57;8.80;;;;;;;6.55;100.00;96319.88;1039311;28;20025;-67
2024/03/14 00:29:06;;;;;;;14.10;8.23;;;;;;;6.56;100.00;96315.47;1039467;28;20112;-68
2024/03/14 00:29:36;;;;;;;13.95;8.43;;;;;;;6.55;100.00;96317.28;1043535;28;20021;-68
2024/03/14 00:30:08;;;;;;;12.63;8.40;;;;;;;6.57;100.00;96319.66;1039354;28;20024;-68
2024/03/14 00:30:39;;;;;;;11.98;8.35;;;;;;;6.56;100.00;96324.06;1031110;28;20049;-67
2024/03/14 00:31:12;;;;;;;13.48;8.70;;;;;;;6.57;100.00;96320.47;1031256;28;20097;-68
2024/03/14 00:31:43;;;;;;;11.98;8.30;;;;;;;6.58;100.00;96321.25;1027986;28;20033;-68
2024/03/14 00:32:13;;;;;;;13.30;8.35;;;;;;;6.59;100.00;96315.03;1032629;28;20025;-68
2024/03/14 00:32:44;;;;;;;14.43;8.73;;;;;;;6.59;100.00;96312.41;1031289;28;20443;-68
2024/03/14 00:33:14;;;;;;;14.32;9.18;;;;;;;6.56;100.00;96305.03;1035452;28;20038;-68
2024/03/14 00:33:45;;;;;;;12.32;8.32;;;;;;;6.60;100.00;96316.59;1039373;28;20029;-70
2024/03/14 00:34:15;;;;;;;11.73;8.70;;;;;;;6.55;100.00;96308.66;1039474;28;20437;-68
2024/03/14 00:34:46;;;;;;;15.32;8.90;;;;;;;6.60;100.00;96311.38;1043350;28;20030;-69
2024/03/14 00:35:17;;;;;;;15.10;8.77;;;;;;;6.59;100.00;96315.81;1031263;28;20042;-68
2024/03/14 00:35:48;;;;;;;14.07;8.77;;;;;;;6.59;100.00;96313.19;1027121;28;20049;-68
2024/03/14 00:36:18;;;;;;;12.73;8.75;;;;;;;6.59;100.00;96309.81;1027391;28;20038;-67
2024/03/14 00:36:49;;;;;;;14.82;8.82;;;;;;;6.60;100.00;96306.97;1027309;28;20042;-67
2024/03/14 00:37:19;;;;;;;13.95;8.30;;;;;;;6.59;100.00;96315.03;1035104;28;20033;-68
2024/03/14 00:37:50;;;;;;;10.98;7.88;;;;;;;6.59;100.00;96308.00;1033148;28;20046;-67
2024/03/14 00:38:20;;;;;;;13.13;8.40;;;;;;;6.59;100.00;96307.19;1031278;28;20030;-69
2024/03/14 00:38:51;;;;;;;12.30;7.82;;;;;;;6.56;100.00;96299.81;1035269;28;20034;-67
2024/03/14 00:39:24;;;;;;;11.65;7.90;;;;;;;6.61;100.00;96305.97;1028282;28;20031;-68
2024/03/14 00:39:55;;;;;;;13.45;8.48;;;;;;;6.63;100.00;96310.94;1035830;28;20029;-67
2024/03/14 00:40:25;;;;;;;10.60;7.40;;;;;;;6.64;100.00;96306.50;1035437;28;20036;-68
2024/03/14 00:40:56;;;;;;;13.57;8.20;;;;;;;6.62;100.00;96309.34;1035596;28;20093;-66
2024/03/14 00:41:26;;;;;;;14.48;8.55;;;;;;;6.64;100.00;96306.50;1039410;28;20061;-68
2024/03/14 00:41:56;;;;;;;10.85;7.57;;;;;;;6.62;100.00;96309.34;1043616;28;20087;-67
2024/03/14 00:42:27;;;;;;;12.02;8.00;;;;;;;6.61;100.00;96305.16;1047670;28;20032;-69
2024/03/14 00:42:57;;;;;;;13.35;7.93;;;;;;;6.63;100.00;96304.94;1043346;28;20583;-68
2024/03/14 00:43:28;;;;;;;12.23;7.72;;;;;;;6.58;100.00;96295.19;1043435;28;20056;-68
2024/03/14 00:44:03;;;;;;;12.23;7.95;;;;;;;6.63;100.00;96307.53;1039366;28;20040;-69
2024/03/14 00:44:33;;;;;;;12.40;7.72;;;;;;;6.62;100.00;96306.75;1035122;28;20052;-68
2024/03/14 00:45:06;;;;;;;10.60;7.28;;;;;;;6.63;100.00;96310.16;1035296;28;20814;-67
2024/03/14 00:45:36;;;;;;;13.80;8.57;;;;;;;6.63;100.00;96310.94;1035245;28;20048;-68
2024/03/14 00:46:07;;;;;;;12.68;7.80;;;;;;;6.60;100.00;96300.97;1035738;28;20498;-69
2024/03/14 00:46:37;;;;;;;14.32;8.30;;;;;;;6.61;100.00;96302.56;1039094;28;20030;-68
2024/03/14 00:47:08;;;;;;;11.23;7.65;;;;;;;6.62;100.00;96304.16;1031154;28;20033;-69
2024/03/14 00:47:38;;;;;;;12.43;7.97;;;;;;;6.62;100.00;96304.16;1027077;28;20479;-67
2024/03/14 00:48:10;;;;;;;11.80;7.35;;;;;;;6.64;100.00;96302.13;1026577;28;20023;-67
2024/03/14 00:48:41;;;;;;;11.48;7.47;;;;;;;6.64;100.00;96302.13;1031566;28;20045;-68
2024/03/14 00:49:12;;;;;;;15.93;7.80;;;;;;;6.64;100.00;96301.31;1039223;28;20022;-67
2024/03/14 00:49:42;;;;;;;11.50;7.72;;;;;;;6.64;100.00;96302.13;1038931;28;20017;-68
2024/03/14 00:50:13;;;;;;;11.25;7.60;;;;;;;6.66;100.00;96304.50;1035466;28;20026;-68
2024/03/14 00:50:44;;;;;;;13.25;8.00;;;;;;;6.65;100.00;96303.69;1031181;28;20117;-70
2024/03/14 00:51:14;;;;;;;11.05;7.88;;;;;;;6.65;100.00;96298.50;1036076;28;20032;-68
2024/03/14 00:51:45;;;;;;;11.20;7.60;;;;;;;6.66;100.00;96300.06;1039381;28;20038;-69
2024/03/14 00:52:17;;;;;;;11.13;7.85;;;;;;;6.63;100.00;96292.69;1035394;28;20026;-68
2024/03/14 00:52:47;;;;;;;11.77;7.82;;;;;;;6.66;100.00;96305.28;1035267;28;20034;-68
2024/03/14 00:53:18;;;;;;;10.73;7.68;;;;;;;6.62;100.00;96301.53;1031280;28;20030;-67
2024/03/14 00:53:51;;;;;;;11.07;7.68;;;;;;;6.64;100.00;96306.50;1027275;28;20031;-68
2024/03/14 00:54:22;;;;;;;11.40;7.68;;;;;;;6.65;100.00;96298.50;1023862;28;20428;-69
2024/03/14 00:54:53;;;;;;;12.45;7.60;;;;;;;6.65;100.00;96301.09;1023465;28;20035;-68
2024/03/14 00:55:23;;;;;;;10.80;7.80;;;;;;;6.64;100.00;96302.13;1023807;28;20565;-67
2024/03/14 00:55:54;;;;;;;10.30;7.35;;;;;;;6.65;100.00;96297.69;1027223;28;20147;-68
2024/03/14 00:56:26;;;;;;;10.48;7.55;;;;;;;6.60;100.00;96296.53;1028681;28;20089;-67
2024/03/14 00:56:57;;;;;;;10.40;6.95;;;;;;;6.65;100.00;96303.69;1035535;28;20014;-68
2024/03/14 00:57:28;;;;;;;12.02;7.50;;;;;;;6.64;100.00;96306.50;1039422;28;20033;-68
2024/03/14 00:58:00;;;;;;;11.93;7.43;;;;;;;6.65;100.00;96302.91;1033530;28;20031;-66
2024/03/14 00:58:31;;;;;;;10.20;7.43;;;;;;;6.66;100.00;96307.09;1027085;28;20015;-70
2024/03/14 00:59:01;;;;;;;11.15;6.90;;;;;;;6.66;100.00;96300.06;1031404;28;20018;-68
2024/03/14 00:59:32;;;;;;;12.48;7.95;;;;;;;6.65;100.00;96300.31;1035766;28;20025;-68
2024/03/14 01:00:13;;;;;;;10.45;7.10;;;;;;;6.62;100.00;96298.94;1034862;28;20482;-68
2024/03/14 01:00:44;;;;;;;11.15;6.88;;;;;;;6.67;100.00;96306.88;1033731;28;20045;-68
2024/03/14 01:01:14;;;;;;;9.93;7.28;;;;;;;6.64;100.00;96290.88;1027310;28;20027;-67
2024/03/14 01:01:45;;;;;;;12.93;7.28;;;;;;;6.66;100.00;96297.47;1035075;28;20021;-68
2024/03/14 01:02:15;;;;;;;11.45;7.80;;;;;;;6.65;100.00;96298.50;1039193;28;20079;-68
2024/03/14 01:02:48;;;;;;;11.07;6.93;;;;;;;6.60;100.00;96291.31;1039339;28;20029;-70
2024/03/14 01:03:19;;;;;;;11.50;7.05;;;;;;;6.67;100.00;96301.66;1033083;28;20098;-68
2024/03/14 01:03:49;;;;;;;11.27;7.18;;;;;;;6.67;100.00;96296.44;1034832;28;20029;-67
2024/03/14 01:04:20;;;;;;;10.80;7.18;;;;;;;6.64;100.00;96296.09;1027124;28;20015;-70
2024/03/14 01:04:53;;;;;;;11.45;7.25;;;;;;;6.67;100.00;96296.44;1020058;28;20465;-70
2024/03/14 01:05:24;;;;;;;8.95;6.30;;;;;;;6.67;100.00;96303.47;1027112;28;20436;-68
2024/03/14 01:05:58;;;;;;;11.35;6.47;;;;;;;6.68;100.00;96299.88;1031052;28;20029;-68
2024/03/14 01:06:28;;;;;;;8.93;6.13;;;;;;;6.68;100.00;96300.66;1031427;28;20030;-68
2024/03/14 01:06:58;;;;;;;13.65;7.18;;;;;;;6.68;100.00;96302.47;1031637;28;20031;-68
2024/03/14 01:07:29;;;;;;;10.00;6.55;;;;;;;6.66;100.00;96292.25;1035350;28;20480;-68
2024/03/14 01:08:00;;;;;;;11.50;6.70;;;;;;;6.67;100.00;96293.81;1026497;28;20456;-68
2024/03/14 01:08:30;;;;;;;11.10;6.78;;;;;;;6.57;100.00;96280.53;1027139;28;20078;-68
2024/03/14 01:09:01;;;;;;;9.77;6.50;;;;;;;6.63;100.00;96287.47;1031137;28;20106;-67
2024/03/14 01:09:32;;;;;;;12.05;6.72;;;;;;;6.59;100.00;96281.13;1031455;28;20073;-67
2024/03/14 01:10:05;;;;;;;8.75;6.25;;;;;;;6.65;100.00;96293.28;1031049;28;20026;-68
2024/03/14 01:10:35;;;;;;;9.57;6.72;;;;;;;6.61;100.00;96289.53;1031024;28;20022;-69
2024/03/14 01:11:05;;;;;;;9.32;6.65;;;;;;;6.63;100.00;96295.28;1031010;28;20015;-69
2024/03/14 01:11:36;;;;;;;12.32;6.80;;;;;;;6.63;100.00;96287.47;1030663;28;20022;-69
2024/03/14 01:12:06;;;;;;;8.75;6.07;;;;;;;6.63;100.00;96290.09;1035540;28;20014;-69
2024/03/14 01:12:38;;;;;;;9.48;6.57;;;;;;;6.62;100.00;96291.09;1039156;28;20111;-69
2024/03/14 01:13:08;;;;;;;9.45;6.22;;;;;;;6.62;100.00;96285.91;1027132;28;20385;-69
2024/03/14 01:13:39;;;;;;;10.18;6.95;;;;;;;6.62;100.00;96288.50;1030232;28;20066;-69
2024/03/14 01:14:11;;;;;;;9.02;6.70;;;;;;;6.58;100.00;96280.34;1027520;28;20408;-69
2024/03/14 01:14:44;;;;;;;9.10;5.95;;;;;;;6.59;100.00;96281.91;1027794;28;20066;-68
2024/03/14 01:15:15;;;;;;;9.07;6.32;;;;;;;6.59;100.00;96281.91;1030983;28;20158;-68
2024/03/14 01:15:46;;;;;;;9.65;6.22;;;;;;;6.58;100.00;96282.16;1031252;28;20648;-69
2024/03/14 01:16:16;;;;;;;9.70;6.82;;;;;;;6.55;100.00;96277.38;1031231;28;20073;-68
2024/03/14 01:16:49;;;;;;;10.05;6.75;;;;;;;6.54;100.00;96275.81;1031248;28;20035;-69
2024/03/14 01:17:19;;;;;;;9.90;6.70;;;;;;;6.58;100.00;96276.94;1034915;28;20029;-70
2024/03/14 01:17:50;;;;;;;11.95;6.93;;;;;;;6.54;100.00;96276.59;1027496;28;20042;-69
2024/03/14 01:18:20;;;;;;;12.02;6.75;;;;;;;6.48;100.00;96266.25;1034963;28;20032;-67
2024/03/14 01:18:51;;;;;;;8.80;6.03;;;;;;;6.54;100.00;96275.81;1031416;28;20042;-69
2024/03/14 01:19:21;;;;;;;8.88;6.32;;;;;;;6.52;100.00;96272.59;1031060;28;20030;-71
2024/03/14 01:19:53;;;;;;;9.65;6.72;;;;;;;6.49;100.00;96267.84;1031118;28;20130;-69
2024/03/14 01:20:24;;;;;;;10.40;6.90;;;;;;;6.53;100.00;96285.41;1023209;28;20440;-69
2024/03/14 01:20:54;;;;;;;10.38;6.28;;;;;;;6.52;100.00;96272.59;1027354;28;20023;-70
2024/03/14 01:21:26;;;;;;;10.25;6.97;;;;;;;6.50;100.00;96278.03;1031159;28;20099;-69
2024/03/14 01:21:56;;;;;;;12.43;7.43;;;;;;;6.50;100.00;96274.63;1031125;28;20092;-68
2024/03/14 01:22:29;;;;;;;9.80;6.78;;;;;;;6.49;100.00;96275.66;1035083;28;20499;-69
2024/03/14 01:22:59;;;;;;;11.75;7.43;;;;;;;6.46;100.00;96268.28;1035115;28;20733;-69
2024/03/14 01:23:29;;;;;;;8.80;6.60;;;;;;;6.47;100.00;96280.28;1035439;28;20021;-70
2024/03/14 01:24:00;;;;;;;10.18;7.22;;;;;;;6.45;100.00;96272.72;1035194;28;20030;-69
2024/03/14 01:24:30;;;;;;;10.75;7.18;;;;;;;6.44;100.00;96275.53;1039256;28;20044;-70
2024/03/14 01:25:01;;;;;;;9.73;6.50;;;;;;;6.46;100.00;96278.72;1030920;28;20073;-69
2024/03/14 01:25:31;;;;;;;9.43;7.00;;;;;;;6.45;100.00;96277.13;1034125;28;20036;-69
2024/03/14 01:26:03;;;;;;;11.38;7.47;;;;;;;6.44;100.00;96276.34;1031175;28;20031;-69
2024/03/14 01:26:34;;;;;;;9.88;7.13;;;;;;;6.42;100.00;96277.56;1031454;28;20037;-69
2024/03/14 01:27:04;;;;;;;10.32;7.63;;;;;;;6.37;100.00;96273.81;1037001;28;20026;-70
2024/03/14 01:27:35;;;;;;;10.57;7.18;;;;;;;6.36;100.00;96269.59;1035376;28;20065;-69
2024/03/14 01:28:07;;;;;;;9.90;6.63;;;;;;;6.34;100.00;96276.88;1034131;28;20036;-69
2024/03/14 01:28:37;;;;;;;9.05;6.55;;;;;;;6.33;100.00;96282.28;1027002;28;20054;-69
2024/03/14 01:29:08;;;;;;;9.52;6.72;;;;;;;6.33;100.00;96275.25;1022905;29;20031;-69
2024/03/14 01:29:38;;;;;;;10.98;6.95;;;;;;;6.26;100.00;96263.34;1023324;28;20381;-69
2024/03/14 01:30:12;;;;;;;11.10;7.05;;;;;;;6.25;100.00;96262.56;1027193;28;20106;-68
2024/03/14 01:30:42;;;;;;;9.85;7.43;;;;;;;6.22;100.00;96270.81;1034919;28;20038;-69
2024/03/14 01:31:14;;;;;;;9.32;7.03;;;;;;;6.21;100.00;96277.06;1031005;28;20030;-69
2024/03/14 01:31:46;;;;;;;10.30;6.22;;;;;;;6.17;100.00;96270.69;1031855;28;20105;-70
2024/03/14 01:32:19;;;;;;;10.93;7.38;;;;;;;6.15;100.00;96275.31;1034135;28;20037;-70
2024/03/14 01:32:50;;;;;;;9.30;6.70;;;;;;;6.09;100.00;96265.78;1032033;28;20058;-69
2024/03/14 01:33:20;;;;;;;9.10;6.68;;;;;;;6.08;100.00;96265.00;1035036;28;20033;-68
2024/03/14 01:33:51;;;;;;;9.52;6.05;;;;;;;6.05;100.00;96260.22;1036108;28;20033;-69
2024/03/14 01:34:22;;;;;;;9.15;6.80;;;;;;;6.05;100.00;96272.47;1035132;28;20399;-69
2024/03/14 01:34:53;;;;;;;8.30;6.18;;;;;;;6.03;100.00;96269.25;1031027;28;20118;-70
2024/03/14 01:35:24;;;;;;;8.50;6.20;;;;;;;6.00;100.00;96270.53;1026876;28;20491;-69
2024/03/14 01:35:58;;;;;;;10.40;7.10;;;;;;;5.99;100.00;96257.69;1030926;28;20026;-69
2024/03/14 01:36:29;;;;;;;10.38;6.93;;;;;;;6.02;100.00;96272.91;1031078;28;20162;-69
2024/03/14 01:37:06;;;;;;;12.05;6.57;;;;;;;5.99;100.00;96266.31;1027628;28;20071;-69
2024/03/14 01:37:36;;;;;;;7.95;5.95;;;;;;;6.01;100.00;96260.88;1027565;28;20121;-69
2024/03/14 01:38:07;;;;;;;11.05;6.68;;;;;;;6.02;100.00;96262.47;1030478;28;20031;-69
2024/03/14 01:38:37;;;;;;;10.32;6.75;;;;;;;6.02;100.00;96267.69;1032014;28;20037;-69
2024/03/14 01:39:10;;;;;;;11.38;6.68;;;;;;;5.97;100.00;96254.50;1031026;28;20499;-70
2024/03/14 01:39:40;;;;;;;9.32;6.28;;;;;;;6.02;100.00;96262.47;1034978;28;20511;-69
2024/03/14 01:40:14;;;;;;;8.98;6.45;;;;;;;5.96;100.00;96248.50;1031121;28;20037;-69
2024/03/14 01:40:44;;;;;;;10.63;6.47;;;;;;;5.94;100.00;96253.16;1027807;28;20042;-69
2024/03/14 01:41:21;;;;;;;8.15;5.97;;;;;;;5.98;100.00;96262.13;1022010;28;20104;-69
2024/03/14 01:41:52;;;;;;;10.57;6.88;;;;;;;5.97;100.00;96259.72;1030979;28;20072;-69
2024/03/14 01:42:23;;;;;;;9.23;6.45;;;;;;;5.97;100.00;96259.72;1035170;28;20080;-69
2024/03/14 01:42:54;;;;;;;8.70;6.47;;;;;;;5.95;100.00;96265.16;1025149;28;20027;-70
2024/03/14 01:43:24;;;;;;;9.90;7.25;;;;;;;5.94;100.00;96260.19;1023014;29;20055;-70
2024/03/14 01:43:56;;;;;;;9.45;6.80;;;;;;;5.93;100.00;96258.56;1031219;28;20038;-69
2024/03/14 01:44:52;;;;;;;10.70;7.43;;;;;;;5.93;100.00;96261.97;1035211;28;20018;-69
2024/03/14 01:45:23;;;;;;;8.88;6.07;;;;;;;5.93;100.00;96264.56;1038697;28;20036;-69
2024/03/14 01:45:53;;;;;;;9.88;6.35;;;;;;;5.95;100.00;96256.56;1035271;28;20032;-69
2024/03/14 01:46:28;;;;;;;13.90;7.38;;;;;;;5.94;100.00;96254.97;1042594;28;20020;-68
2024/03/14 01:46:58;;;;;;;10.70;6.38;;;;;;;5.93;100.00;96259.38;1033752;28;20084;-69
2024/03/14 01:47:29;;;;;;;11.25;6.68;;;;;;;5.91;100.00;96262.19;1035144;28;20041;-69
2024/03/14 01:48:00;;;;;;;10.05;6.88;;;;;;;5.84;100.00;96251.06;1026117;28;20039;-68
2024/03/14 01:48:30;;;;;;;11.63;6.38;;;;;;;5.83;100.00;96252.03;1035077;28;20026;-69
2024/03/14 01:49:01;;;;;;;9.98;6.32;;;;;;;5.87;100.00;96260.25;1035039;28;20037;-68
2024/03/14 01:49:32;;;;;;;10.88;6.50;;;;;;;5.85;100.00;96257.84;1034781;28;20044;-67
2024/03/14 01:50:05;;;;;;;8.77;6.60;;;;;;;5.83;100.00;96259.84;1034896;28;20034;-68
2024/03/14 01:50:36;;;;;;;11.77;6.93;;;;;;;5.81;100.00;96251.50;1035140;28;20025;-68
2024/03/14 01:51:06;;;;;;;12.55;6.75;;;;;;;5.78;100.00;96254.53;1035657;28;20030;-69
2024/03/14 01:51:37;;;;;;;9.88;6.13;;;;;;;5.77;100.00;96255.53;1038989;28;20025;-68
2024/03/14 01:52:08;;;;;;;9.02;6.07;;;;;;;5.77;100.00;96249.53;1039042;28;20033;-68
2024/03/14 01:52:38;;;;;;;10.25;6.65;;;;;;;5.74;100.00;96258.59;1035051;28;20641;-67
2024/03/14 01:53:10;;;;;;;8.43;6.15;;;;;;;5.74;100.00;96261.19;1027181;28;20074;-68
2024/03/14 01:53:40;;;;;;;9.20;6.15;;;;;;;5.73;100.00;96254.38;1031022;28;20039;-68
2024/03/14 01:54:12;;;;;;;7.13;5.55;;;;;;;5.72;100.00;96257.22;1027005;28;20047;-68
2024/03/14 01:54:42;;;;;;;8.98;6.07;;;;;;;5.71;100.00;96256.41;1027492;28;20456;-67
2024/03/14 01:55:14;;;;;;;9.27;6.28;;;;;;;5.67;100.00;96247.47;1035023;28;20084;-68
2024/03/14 01:55:45;;;;;;;8.63;5.85;;;;;;;5.70;100.00;96254.84;1031436;28;20033;-69
2024/03/14 01:56:17;;;;;;;9.95;6.35;;;;;;;5.72;100.00;96263.22;1031729;28;20122;-68
2024/03/14 01:56:57;;;;;;;9.02;6.30;;;;;;;5.68;100.00;96257.63;1032855;28;20030;-68
2024/03/14 01:57:29;;;;;;;7.03;5.30;;;;;;;5.63;100.00;96249.72;1028303;28;20672;-69
2024/03/14 01:58:00;;;;;;;8.65;6.07;;;;;;;5.61;100.00;96246.50;1024497;28;20027;-69
2024/03/14 01:58:31;;;;;;;9.13;5.60;;;;;;;5.65;100.00;96257.28;1032174;28;20053;-69
2024/03/14 01:59:02;;;;;;;8.98;6.20;;;;;;;5.65;100.00;96257.28;1031870;28;20022;-68
2024/03/14 01:59:32;;;;;;;7.95;6.13;;;;;;;5.63;100.00;96251.50;1031028;28;20069;-68
2024/03/14 02:00:06;;;;;;;9.95;6.22;;;;;;;5.66;100.00;96254.44;1026589;28;20041;-68
2024/03/14 02:00:42;;;;;;;9.82;6.50;;;;;;;5.62;100.00;96239.50;1020387;28;20087;-68
2024/03/14 02:01:13;;;;;;;8.90;6.30;;;;;;;5.69;100.00;96253.22;1026958;28;20027;-69
2024/03/14 02:01:43;;;;;;;9.68;7.13;;;;;;;5.74;100.00;96245.56;1029933;28;20486;-68
2024/03/14 02:02:14;;;;;;;11.88;6.82;;;;;;;5.82;100.00;96253.06;1030885;28;20455;-68
2024/03/14 02:02:45;;;;;;;12.43;7.30;;;;;;;5.78;100.00;96241.50;1027015;28;20027;-68
2024/03/14 02:03:17;;;;;;;10.13;6.82;;;;;;;5.82;100.00;96247.84;1026847;28;20097;-67
2024/03/14 02:04:00;;;;;;;10.40;7.15;;;;;;;5.81;100.00;96241.06;1030999;28;20031;-69
2024/03/14 02:04:52;;;;;;;8.88;6.50;;;;;;;5.84;100.00;96251.06;1030779;28;20472;-69
2024/03/14 02:05:41;;;;;;;10.70;7.00;;;;;;;5.83;100.00;96238.22;1027374;28;20257;-68
2024/03/14 02:06:24;;;;;;;10.23;5.82;;;;;;;5.88;100.00;96249.59;1027429;28;20495;-68
2024/03/14 02:07:09;;;;;;;10.40;6.75;;;;;;;5.84;100.00;96239.84;1023024;28;20022;-68
2024/03/14 02:07:40;;;;;;;8.23;5.88;;;;;;;5.90;100.00;96249.34;1022955;29;20524;-68
2024/03/14 02:08:10;;;;;;;9.45;6.43;;;;;;;5.86;100.00;96243.78;1022773;28;20034;-69
2024/03/14 02:08:41;;;;;;;10.63;6.18;;;;;;;5.88;100.00;96251.41;1024796;28;20042;-71
2024/03/14 02:09:13;;;;;;;12.32;6.78;;;;;;;5.87;100.00;96248.00;1027062;28;20033;-68
2024/03/14 02:09:44;;;;;;;9.30;6.70;;;;;;;5.81;100.00;96238.47;1027550;28;20043;-68
2024/03/14 02:10:14;;;;;;;9.10;6.45;;;;;;;5.86;100.00;96246.41;1038569;28;20343;-69
2024/03/14 02:10:45;;;;;;;12.15;6.57;;;;;;;5.85;100.00;96247.41;1022369;29;20496;-68
2024/03/14 02:11:15;;;;;;;9.77;6.97;;;;;;;5.81;100.00;96240.28;1034891;28;20053;-69
2024/03/14 02:11:45;;;;;;;9.35;6.55;;;;;;;5.86;100.00;96243.00;1030862;28;20038;-70
2024/03/14 02:12:16;;;;;;;9.95;6.47;;;;;;;5.85;100.00;96242.22;1030885;28;20034;-70
2024/03/14 02:12:46;;;;;;;9.40;6.30;;;;;;;5.86;100.00;96243.00;1030886;28;20077;-69
2024/03/14 02:13:17;;;;;;;10.20;6.95;;;;;;;5.81;100.00;96237.69;1027391;28;20026;-69
2024/03/14 02:13:47;;;;;;;10.88;6.95;;;;;;;5.87;100.00;96244.63;1039064;28;20033;-69
2024/03/14 02:14:18;;;;;;;10.52;7.35;;;;;;;5.87;100.00;96248.00;1038981;28;20037;-69
2024/03/14 02:14:48;;;;;;;8.98;6.63;;;;;;;5.87;100.00;96244.63;1035070;28;20519;-70
2024/03/14 02:15:18;;;;;;;11.73;6.45;;;;;;;5.87;100.00;96248.00;1030814;28;20038;-70
2024/03/14 02:15:49;;;;;;;12.00;7.15;;;;;;;5.89;100.00;96247.78;1030812;28;20038;-69
2024/03/14 02:16:19;;;;;;;9.57;6.65;;;;;;;5.88;100.00;96249.59;1027119;28;20416;-69
2024/03/14 02:16:50;;;;;;;12.93;7.60;;;;;;;5.90;100.00;96249.34;1026806;28;20065;-69
2024/03/14 02:17:20;;;;;;;9.85;6.28;;;;;;;5.88;100.00;96244.38;1034847;28;20037;-69
2024/03/14 02:17:51;;;;;;;12.38;6.78;;;;;;;5.88;100.00;96252.19;1038584;28;20101;-69
2024/03/14 02:18:21;;;;;;;8.85;6.82;;;;;;;5.87;100.00;96247.22;1042892;28;20464;-70
2024/03/14 02:18:52;;;;;;;9.48;6.35;;;;;;;5.87;100.00;96245.41;1038860;28;20418;-70
2024/03/14 02:19:22;;;;;;;10.50;6.88;;;;;;;5.86;100.00;96243.78;1038812;28;20075;-69
2024/03/14 02:19:52;;;;;;;10.98;7.55;;;;;;;5.84;100.00;96245.84;1030954;28;20034;-69
2024/03/14 02:20:23;;;;;;;8.82;5.90;;;;;;;5.83;100.00;96246.84;1029704;28;20026;-70
2024/03/14 02:20:54;;;;;;;10.13;6.57;;;;;;;5.83;100.00;96239.03;1032490;28;20091;-70
2024/03/14 02:21:25;;;;;;;8.38;6.25;;;;;;;5.83;100.00;96248.66;1027057;28;20030;-70
2024/03/14 02:22:02;;;;;;;9.80;6.47;;;;;;;5.81;100.00;96235.84;1031073;28;20514;-69
2024/03/14 02:22:32;;;;;;;8.75;5.95;;;;;;;5.81;100.00;96238.47;1031958;28;20037;-68
2024/03/14 02:23:03;;;;;;;8.57;5.88;;;;;;;5.81;100.00;96240.28;1031983;28;20045;-69
2024/03/14 02:23:34;;;;;;;10.15;6.90;;;;;;;5.82;100.00;96239.25;1033920;28;20026;-69
2024/03/14 02:24:06;;;;;;;9.68;6.25;;;;;;;5.81;100.00;96235.84;1038011;28;20095;-70
2024/03/14 02:24:36;;;;;;;10.30;6.68;;;;;;;5.78;100.00;96230.31;1039021;28;20410;-71
2024/03/14 02:25:07;;;;;;;9.98;6.63;;;;;;;5.80;100.00;96238.66;1035409;28;20061;-70
2024/03/14 02:25:37;;;;;;;10.98;6.65;;;;;;;5.81;100.00;96235.84;1030826;28;20026;-69
2024/03/14 02:26:08;;;;;;;9.88;6.60;;;;;;;5.80;100.00;96238.66;1026930;28;20018;-70
2024/03/14 02:26:42;;;;;;;9.02;6.47;;;;;;;5.81;100.00;96235.84;1026401;28;20496;-70